createdAt,value
2022-10-09T00:01:57.138Z,100840.88
2022-10-09T00:04:29.638Z,100839.25
2022-10-09T00:06:59.517Z,100831.97
2022-10-09T00:09:29.753Z,100828.28
2022-10-09T00:12:00.188Z,100829.53
2022-10-09T00:14:30.337Z,100834.38
2022-10-09T00:17:00.179Z,100832.75
2022-10-09T00:19:31.957Z,100838.03
2022-10-09T00:22:02.508Z,100833.97
2022-10-09T00:24:32.808Z,100834.81
2022-10-09T00:27:02.977Z,100824.63
2022-10-09T00:29:33.858Z,100831.16
2022-10-09T00:32:03.498Z,100828.31
2022-10-09T00:34:36.081Z,100823.81
2022-10-09T00:37:06.525Z,100821.78
2022-10-09T00:39:37.004Z,100828.25
2022-10-09T00:42:16.889Z,100821.38
2022-10-09T00:44:57.658Z,100817.31
2022-10-09T00:47:35.674Z,100816.06
2022-10-09T00:50:16.339Z,100821.38
2022-10-09T00:52:46.593Z,100820.53
2022-10-09T00:55:18.158Z,100818.91
2022-10-09T00:57:49.506Z,100811.59
2022-10-09T01:00:20.129Z,100814.84
2022-10-09T01:02:50.730Z,100813.22
2022-10-09T01:05:33.228Z,100811.19
2022-10-09T01:08:16.523Z,100814.84
2022-10-09T01:10:57.757Z,100813.22
2022-10-09T01:13:36.354Z,100816.44
2022-10-09T01:16:22.872Z,100814.03
2022-10-09T01:19:03.786Z,100816.44
2022-10-09T01:21:44.012Z,100818.41
2022-10-09T01:24:31.808Z,100817.59
2022-10-09T01:27:22.489Z,100816.34
2022-10-09T01:29:58.988Z,100815.53
2022-10-09T01:32:35.036Z,100819.97
2022-10-09T01:35:06.649Z,100821.16
2022-10-09T01:37:40.007Z,100822.38
2022-10-09T01:40:13.045Z,100818.72
2022-10-09T01:42:47.504Z,100814.63
2022-10-09T01:45:18.328Z,100821.13
2022-10-09T01:47:48.801Z,100820.28
2022-10-09T01:50:26.916Z,100828.00
2022-10-09T01:53:02.854Z,100819.44
2022-10-09T01:55:45.891Z,100825.09
2022-10-09T01:58:25.994Z,100827.50
2022-10-09T02:01:10.109Z,100826.28
2022-10-09T02:03:45.734Z,100825.84
2022-10-09T02:06:20.047Z,100821.81
2022-10-09T02:08:53.380Z,100816.13
2022-10-09T02:11:24.744Z,100830.72
2022-10-09T02:13:58.480Z,100821.00
2022-10-09T02:16:38.955Z,100816.53
2022-10-09T02:19:18.816Z,100825.03
2022-10-09T02:21:58.078Z,100823.00
2022-10-09T02:24:28.926Z,100822.22
2022-10-09T02:27:00.958Z,100823.00
2022-10-09T02:29:33.032Z,100826.25
2022-10-09T02:32:03.158Z,100826.66
2022-10-09T02:34:33.897Z,100824.19
2022-10-09T02:37:04.432Z,100837.56
2022-10-09T02:39:34.747Z,100835.16
2022-10-09T02:42:05.490Z,100834.31
2022-10-09T02:44:37.998Z,100843.22
2022-10-09T02:47:08.622Z,100843.59
2022-10-09T02:49:38.577Z,100846.03
2022-10-09T02:52:09.018Z,100842.38
2022-10-09T02:54:39.347Z,100841.16
2022-10-09T02:57:09.466Z,100850.06
2022-10-09T02:59:41.180Z,100837.91
2022-10-09T03:02:11.438Z,100852.06
2022-10-09T03:04:41.875Z,100850.44
2022-10-09T03:07:11.824Z,100844.75
2022-10-09T03:09:41.858Z,100856.88
2022-10-09T03:12:12.206Z,100862.53
2022-10-09T03:14:44.337Z,100852.38
2022-10-09T03:17:14.344Z,100849.97
2022-10-09T03:19:44.684Z,100853.19
2022-10-09T03:22:15.013Z,100849.50
2022-10-09T03:24:45.399Z,100858.41
2022-10-09T03:27:15.595Z,100855.56
2022-10-09T03:29:47.651Z,100852.69
2022-10-09T03:32:17.817Z,100856.69
2022-10-09T03:34:48.216Z,100853.03
2022-10-09T03:37:18.693Z,100865.53
2022-10-09T03:39:48.806Z,100863.03
2022-10-09T03:42:18.644Z,100861.41
2022-10-09T03:44:51.062Z,100860.19
2022-10-09T03:47:21.252Z,100858.94
2022-10-09T03:49:51.678Z,100865.81
2022-10-09T03:52:22.521Z,100877.53
2022-10-09T03:54:52.288Z,100876.28
2022-10-09T03:57:22.376Z,100867.38
2022-10-09T03:59:54.423Z,100874.69
2022-10-09T04:02:24.697Z,100871.03
2022-10-09T04:04:55.242Z,100873.06
2022-10-09T04:07:25.553Z,100875.47
2022-10-09T04:09:55.643Z,100877.91
2022-10-09T04:12:25.941Z,100881.16
2022-10-09T04:14:58.069Z,100884.00
2022-10-09T04:17:28.337Z,100883.19
2022-10-09T04:19:58.660Z,100879.16
2022-10-09T04:22:32.865Z,100880.78
2022-10-09T04:25:02.882Z,100873.53
2022-10-09T04:27:34.399Z,100883.69
2022-10-09T04:30:07.275Z,100881.31
2022-10-09T04:32:37.479Z,100886.56
2022-10-09T04:35:08.745Z,100887.03
2022-10-09T04:37:38.480Z,100889.09
2022-10-09T04:40:09.889Z,100903.63
2022-10-09T04:42:40.270Z,100899.59
2022-10-09T04:45:14.327Z,100901.66
2022-10-09T04:47:44.547Z,100904.50
2022-10-09T04:50:15.602Z,100902.88
2022-10-09T04:52:45.991Z,100896.84
2022-10-09T04:55:16.567Z,100909.78
2022-10-09T04:57:46.894Z,100912.63
2022-10-09T05:00:20.925Z,100914.66
2022-10-09T05:02:51.571Z,100919.88
2022-10-09T05:05:22.184Z,100919.50
2022-10-09T05:07:52.529Z,100936.50
2022-10-09T05:10:22.967Z,100935.69
2022-10-09T05:12:53.309Z,100933.28
2022-10-09T05:15:24.938Z,100936.09
2022-10-09T05:17:55.254Z,100942.56
2022-10-09T05:20:25.899Z,100944.19
2022-10-09T05:22:56.291Z,100940.56
2022-10-09T05:25:26.713Z,100942.19
2022-10-09T05:27:57.010Z,100956.38
2022-10-09T05:30:29.658Z,100955.97
2022-10-09T05:33:00.219Z,100954.75
2022-10-09T05:35:30.489Z,100954.38
2022-10-09T05:38:00.853Z,100945.56
2022-10-09T05:40:31.258Z,100948.88
2022-10-09T05:43:01.567Z,100946.91
2022-10-09T05:45:33.491Z,100947.00
2022-10-09T05:48:06.174Z,100956.44
2022-10-09T05:50:36.686Z,100954.09
2022-10-09T05:53:06.909Z,100956.59
2022-10-09T05:55:37.461Z,100959.53
2022-10-09T05:58:07.875Z,100964.44
2022-10-09T06:00:40.271Z,100958.81
2022-10-09T06:03:10.588Z,100964.94
2022-10-09T06:05:40.786Z,100960.91
2022-10-09T06:08:11.328Z,100965.78
2022-10-09T06:10:41.442Z,100972.31
2022-10-09T06:13:11.810Z,100967.47
2022-10-09T06:15:53.810Z,100977.25
2022-10-09T06:18:24.403Z,100974.00
2022-10-09T06:20:58.427Z,100976.44
2022-10-09T06:23:28.855Z,100981.75
2022-10-09T06:26:01.606Z,100993.09
2022-10-09T06:28:33.038Z,100987.03
2022-10-09T06:31:07.925Z,100993.97
2022-10-09T06:33:40.816Z,101002.88
2022-10-09T06:36:15.283Z,100995.59
2022-10-09T06:38:46.218Z,100998.44
2022-10-09T06:41:19.619Z,101000.44
2022-10-09T06:43:53.507Z,100997.19
2022-10-09T06:46:30.016Z,101006.13
2022-10-09T06:49:02.614Z,101004.13
2022-10-09T06:51:35.051Z,101008.59
2022-10-09T06:54:09.017Z,101010.59
2022-10-09T06:56:39.582Z,101007.34
2022-10-09T06:59:11.090Z,101009.38
2022-10-09T07:01:44.654Z,101015.06
2022-10-09T07:04:18.149Z,101016.28
2022-10-09T07:06:50.063Z,101022.78
2022-10-09T07:09:20.366Z,101013.03
2022-10-09T07:11:51.551Z,101014.25
2022-10-09T07:14:21.772Z,101020.34
2022-10-09T07:16:55.237Z,101018.72
2022-10-09T07:19:25.069Z,101018.31
2022-10-09T07:21:55.486Z,101020.69
2022-10-09T07:24:28.328Z,101016.69
2022-10-09T07:26:58.618Z,101023.56
2022-10-09T07:29:28.858Z,101026.03
2022-10-09T07:32:01.574Z,101021.56
2022-10-09T07:34:31.629Z,101021.97
2022-10-09T07:37:01.432Z,101024.00
2022-10-09T07:39:31.706Z,101023.19
2022-10-09T07:42:02.231Z,101019.97
2022-10-09T07:44:32.791Z,101028.91
2022-10-09T07:47:04.802Z,101025.63
2022-10-09T07:49:35.226Z,101023.59
2022-10-09T07:52:05.886Z,101015.50
2022-10-09T07:54:35.864Z,101023.19
2022-10-09T07:57:07.411Z,101021.16
2022-10-09T07:59:37.331Z,101019.50
2022-10-09T08:02:10.982Z,101019.91
2022-10-09T08:04:40.964Z,101013.38
2022-10-09T08:07:11.351Z,101019.44
2022-10-09T08:09:41.896Z,101012.06
2022-10-09T08:12:12.865Z,101016.94
2022-10-09T08:14:42.907Z,101016.09
2022-10-09T08:17:15.003Z,101013.66
2022-10-09T08:19:45.506Z,101009.56
2022-10-09T08:22:16.143Z,101005.47
2022-10-09T08:24:46.589Z,101011.97
2022-10-09T08:27:16.606Z,101015.59
2022-10-09T08:29:46.788Z,101014.34
2022-10-09T08:32:18.881Z,101008.63
2022-10-09T08:34:49.714Z,101007.75
2022-10-09T08:37:20.141Z,101007.31
2022-10-09T08:39:50.708Z,101010.94
2022-10-09T08:42:34.243Z,101008.44
2022-10-09T08:45:06.756Z,101009.66
2022-10-09T08:47:48.277Z,101004.69
2022-10-09T08:50:24.440Z,101008.72
2022-10-09T08:53:05.619Z,101006.63
2022-10-09T08:55:45.440Z,100998.06
2022-10-09T08:58:21.673Z,101001.75
2022-10-09T09:00:57.107Z,100995.22
2022-10-09T09:03:58.248Z,100997.31
2022-10-09T09:06:42.306Z,100991.66
2022-10-09T09:09:27.976Z,100996.94
2022-10-09T09:12:08.789Z,100995.75
2022-10-09T09:15:05.255Z,100996.16
2022-10-09T09:17:47.600Z,100989.66
2022-10-09T09:20:28.599Z,100993.72
2022-10-09T09:23:03.306Z,100981.50
2022-10-09T09:25:41.865Z,100972.94
2022-10-09T09:28:22.721Z,100977.84
2022-10-09T09:30:58.492Z,100979.91
2022-10-09T09:33:44.248Z,100975.78
2022-10-09T09:36:26.519Z,100968.91
2022-10-09T09:41:48.060Z,100960.41
2022-10-09T09:44:21.593Z,100969.38
2022-10-09T09:46:53.276Z,100965.72
2022-10-09T09:49:27.998Z,100973.03
2022-10-09T09:52:03.880Z,100963.66
2022-10-09T09:54:34.672Z,100965.28
2022-10-09T09:57:18.179Z,100964.88
2022-10-09T09:59:51.459Z,100968.13
2022-10-09T10:02:25.506Z,100965.69
2022-10-09T10:05:00.694Z,100958.75
2022-10-09T10:07:34.747Z,100948.97
2022-10-09T10:10:16.077Z,100957.97
2022-10-09T10:12:57.119Z,100952.25
2022-10-09T10:15:30.807Z,100944.09
2022-10-09T10:18:07.240Z,100946.56
2022-10-09T10:20:48.951Z,100946.56
2022-10-09T10:23:37.677Z,100941.66
2022-10-09T10:26:17.753Z,100932.69
2022-10-09T10:28:54.089Z,100941.25
2022-10-09T10:31:43.073Z,100932.69
2022-10-09T10:34:25.443Z,100928.63
2022-10-09T10:37:06.806Z,100939.63
2022-10-09T10:39:47.311Z,100916.81
2022-10-09T10:42:27.276Z,100927.38
2022-10-09T10:45:06.891Z,100918.44
2022-10-09T10:47:45.506Z,100917.66
2022-10-09T10:50:18.734Z,100927.00
2022-10-09T10:53:06.589Z,100920.50
2022-10-09T10:55:54.339Z,100924.97
2022-10-09T10:58:32.267Z,100921.28
2022-10-09T11:01:26.887Z,100921.28
2022-10-09T11:04:29.086Z,100911.94
2022-10-09T11:07:15.850Z,100915.59
2022-10-09T11:10:01.762Z,100920.91
2022-10-09T11:12:48.396Z,100917.69
2022-10-09T11:15:37.677Z,100908.34
2022-10-09T11:18:37.280Z,100916.53
2022-10-09T11:21:29.703Z,100905.94
2022-10-09T11:24:37.738Z,100913.69
2022-10-09T11:27:18.657Z,100908.84
2022-10-09T11:30:00.308Z,100903.56
2022-10-09T11:32:38.118Z,100902.38
2022-10-09T11:35:18.865Z,100902.38
2022-10-09T11:37:59.689Z,100903.59
2022-10-09T11:40:36.352Z,100900.34
2022-10-09T11:43:32.405Z,100902.00
2022-10-09T11:46:12.712Z,100894.69
2022-10-09T11:48:55.135Z,100886.53
2022-10-09T11:51:35.804Z,100897.13
2022-10-09T11:54:13.344Z,100887.78
2022-10-09T11:56:55.229Z,100904.88
2022-10-09T11:59:30.384Z,100889.41
2022-10-09T12:02:24.406Z,100890.63
2022-10-09T12:04:56.074Z,100891.50
2022-10-09T12:07:34.571Z,100880.91
2022-10-09T12:10:09.884Z,100899.63
2022-10-09T12:12:40.445Z,100881.72
2022-10-09T12:15:27.672Z,100897.19
2022-10-09T12:18:00.352Z,100886.63
2022-10-09T12:20:32.350Z,100889.47
2022-10-09T12:25:57.462Z,100902.13
2022-10-09T12:28:39.492Z,100894.38
2022-10-09T12:31:22.244Z,100894.00
2022-10-09T12:34:01.432Z,100887.94
2022-10-09T12:36:34.671Z,100894.84
2022-10-09T12:39:17.241Z,100894.06
2022-10-09T12:41:50.764Z,100903.03
2022-10-09T12:44:31.734Z,100901.06
2022-10-09T12:47:07.866Z,100904.28
2022-10-09T12:49:39.995Z,100895.34
2022-10-09T12:52:18.482Z,100891.66
2022-10-09T12:54:48.383Z,100896.97
2022-10-09T12:57:23.989Z,100895.34
2022-10-09T12:59:57.818Z,100903.50
2022-10-09T13:02:28.306Z,100900.66
2022-10-09T13:05:03.096Z,100894.16
2022-10-09T13:07:34.830Z,100899.03
2022-10-09T13:10:09.143Z,100899.47
2022-10-09T13:12:40.449Z,100899.06
2022-10-09T13:15:32.271Z,100891.31
2022-10-09T13:18:02.950Z,100895.81
2022-10-09T13:20:36.051Z,100899.88
2022-10-09T13:23:08.860Z,100900.72
2022-10-09T13:25:43.352Z,100906.44
2022-10-09T13:28:22.478Z,100898.72
2022-10-09T13:30:52.665Z,100898.31
2022-10-09T13:33:23.640Z,100898.31
2022-10-09T13:35:55.937Z,100895.88
2022-10-09T13:38:26.273Z,100901.19
2022-10-09T13:40:56.840Z,100893.84
2022-10-09T13:43:29.245Z,100900.38
2022-10-09T13:45:59.145Z,100896.34
2022-10-09T13:48:29.886Z,100899.97
2022-10-09T13:51:03.027Z,100902.03
2022-10-09T13:53:32.916Z,100902.41
2022-10-09T13:56:03.695Z,100897.56
2022-10-09T13:58:33.750Z,100901.63
2022-10-09T14:01:04.134Z,100895.13
2022-10-09T14:03:34.635Z,100899.22
2022-10-09T14:06:07.627Z,100911.41
2022-10-09T14:08:38.151Z,100907.75
2022-10-09T14:11:09.272Z,100909.38
2022-10-09T14:13:39.770Z,100913.84
2022-10-09T14:16:11.529Z,100910.59
2022-10-09T14:18:42.043Z,100915.47
2022-10-09T14:21:17.948Z,100918.31
2022-10-09T14:23:48.293Z,100920.34
2022-10-09T14:26:19.019Z,100922.41
2022-10-09T14:28:49.798Z,100931.34
2022-10-09T14:31:20.062Z,100928.53
2022-10-09T14:33:50.749Z,100924.47
2022-10-09T14:36:23.992Z,100930.16
2022-10-09T14:38:54.716Z,100931.78
2022-10-09T14:41:25.934Z,100933.41
2022-10-09T14:44:00.905Z,100930.56
2022-10-09T14:46:34.215Z,100936.66
2022-10-09T14:49:07.893Z,100939.09
2022-10-09T14:51:43.174Z,100938.72
2022-10-09T14:54:15.163Z,100941.56
2022-10-09T14:56:45.126Z,100936.25
2022-10-09T14:59:15.367Z,100933.00
2022-10-09T15:01:45.144Z,100937.47
2022-10-09T15:04:16.391Z,100940.31
2022-10-09T15:06:48.423Z,100951.31
2022-10-09T15:09:18.615Z,100950.50
2022-10-09T15:11:48.872Z,100950.50
2022-10-09T15:14:19.577Z,100946.84
2022-10-09T15:16:49.576Z,100959.44
2022-10-09T15:19:20.624Z,100952.91
2022-10-09T15:21:53.055Z,100956.16
2022-10-09T15:24:23.267Z,100965.09
2022-10-09T15:26:53.820Z,100957.78
2022-10-09T15:29:24.134Z,100952.09
2022-10-09T15:31:54.557Z,100968.75
2022-10-09T15:34:24.206Z,100967.94
2022-10-09T15:36:56.253Z,100978.50
2022-10-09T15:39:26.476Z,100976.47
2022-10-09T15:41:56.755Z,100970.00
2022-10-09T15:44:29.378Z,100973.25
2022-10-09T15:46:59.716Z,100979.72
2022-10-09T15:49:30.084Z,100983.00
2022-10-09T15:52:02.058Z,100984.22
2022-10-09T15:54:32.347Z,100980.53
2022-10-09T15:57:02.169Z,100977.28
2022-10-09T15:59:32.208Z,100980.97
2022-10-09T16:02:02.408Z,100989.50
2022-10-09T16:04:33.209Z,100988.28
2022-10-09T16:07:05.418Z,100988.28
2022-10-09T16:09:36.318Z,100987.44
2022-10-09T16:12:06.440Z,100990.28
2022-10-09T16:14:36.513Z,100994.34
2022-10-09T16:17:11.126Z,100995.19
2022-10-09T16:19:41.837Z,100991.13
2022-10-09T16:22:14.456Z,100997.59
2022-10-09T16:24:44.697Z,100991.91
2022-10-09T16:27:14.999Z,100987.84
2022-10-09T16:29:45.814Z,100994.38
2022-10-09T16:32:18.613Z,100998.44
2022-10-09T16:34:52.268Z,101001.66
2022-10-09T16:37:24.190Z,101007.75
2022-10-09T16:39:53.985Z,101007.34
2022-10-09T16:42:23.836Z,101011.84
2022-10-09T16:44:53.432Z,101011.84
2022-10-09T16:47:24.036Z,101016.72
2022-10-09T16:49:54.304Z,101020.78
2022-10-09T16:52:26.844Z,101025.25
2022-10-09T16:55:00.390Z,101029.31
2022-10-09T16:57:30.426Z,101036.22
2022-10-09T17:00:02.133Z,101027.25
2022-10-09T17:02:32.285Z,101029.31
2022-10-09T17:05:02.308Z,101032.16
2022-10-09T17:07:34.244Z,101035.00
2022-10-09T17:10:04.308Z,101029.69
2022-10-09T17:12:34.538Z,101039.84
2022-10-09T17:15:04.899Z,101036.22
2022-10-09T17:17:35.398Z,101039.84
2022-10-09T17:20:05.586Z,101051.22
2022-10-09T17:22:38.002Z,101044.75
2022-10-09T17:25:09.741Z,101043.13
2022-10-09T17:27:40.026Z,101047.97
2022-10-09T17:30:12.866Z,101051.63
2022-10-09T17:32:43.189Z,101050.81
2022-10-09T17:35:13.351Z,101047.16
2022-10-09T17:37:45.742Z,101045.97
2022-10-09T17:40:15.923Z,101040.28
2022-10-09T17:42:46.324Z,101050.81
2022-10-09T17:45:16.578Z,101049.22
2022-10-09T17:47:46.933Z,101059.75
2022-10-09T17:50:16.964Z,101054.50
2022-10-09T17:52:49.438Z,101062.19
2022-10-09T17:55:20.110Z,101064.63
2022-10-09T17:57:50.554Z,101061.38
2022-10-09T18:00:22.069Z,101063.81
2022-10-09T18:02:52.823Z,101068.66
2022-10-09T18:05:22.787Z,101065.81
2022-10-09T18:07:54.568Z,101076.41
2022-10-09T18:10:25.135Z,101070.72
2022-10-09T18:12:55.344Z,101069.09
2022-10-09T18:15:25.694Z,101069.91
2022-10-09T18:17:56.846Z,101075.59
2022-10-09T18:20:27.102Z,101075.59
2022-10-09T18:22:59.007Z,101067.47
2022-10-09T18:25:28.785Z,101078.84
2022-10-09T18:27:58.647Z,101080.88
2022-10-09T18:30:29.248Z,101082.88
2022-10-09T18:32:59.618Z,101085.31
2022-10-09T18:35:30.740Z,101074.34
2022-10-09T18:38:02.219Z,101084.09
2022-10-09T18:40:32.496Z,101078.00
2022-10-09T18:43:02.618Z,101075.16
2022-10-09T18:45:33.341Z,101075.56
2022-10-09T18:48:04.648Z,101076.41
2022-10-09T18:50:35.528Z,101077.59
2022-10-09T18:53:07.562Z,101082.47
2022-10-09T18:55:38.238Z,101084.50
2022-10-09T18:58:08.309Z,101080.84
2022-10-09T19:00:40.901Z,101085.72
2022-10-09T19:03:11.444Z,101084.88
2022-10-09T19:05:41.800Z,101087.72
2022-10-09T19:08:14.273Z,101081.66
2022-10-09T19:10:44.727Z,101083.66
2022-10-09T19:13:14.724Z,101077.19
2022-10-09T19:15:44.834Z,101075.53
2022-10-09T19:18:14.791Z,101076.75
2022-10-09T19:20:45.063Z,101077.94
2022-10-09T19:23:18.152Z,101077.94
2022-10-09T19:25:54.043Z,101080.00
2022-10-09T19:28:26.847Z,101080.38
2022-10-09T19:30:57.312Z,101080.38
2022-10-09T19:33:27.237Z,101086.06
2022-10-09T19:35:59.269Z,101082.41
2022-10-09T19:38:30.808Z,101084.44
2022-10-09T19:41:07.682Z,101085.66
2022-10-09T19:43:38.529Z,101084.03
2022-10-09T19:46:14.911Z,101090.53
2022-10-09T19:48:45.341Z,101088.91
2022-10-09T19:51:18.450Z,101084.44
2022-10-09T19:53:52.536Z,101082.78
2022-10-09T19:56:26.520Z,101086.06
2022-10-09T19:58:58.446Z,101085.22
2022-10-09T20:01:29.431Z,101085.63
2022-10-09T20:04:02.193Z,101088.88
2022-10-09T20:06:32.525Z,101087.66
2022-10-09T20:09:04.771Z,101079.53
2022-10-09T20:11:36.274Z,101082.38
2022-10-09T20:14:07.868Z,101082.78
2022-10-09T20:16:39.750Z,101085.63
2022-10-09T20:19:10.065Z,101087.63
2022-10-09T20:21:41.099Z,101093.72
2022-10-09T20:24:13.096Z,101092.50
2022-10-09T20:26:43.428Z,101089.25
2022-10-09T20:29:14.121Z,101088.03
2022-10-09T20:31:44.693Z,101088.81
2022-10-09T20:34:14.638Z,101092.44
2022-10-09T20:36:44.500Z,101090.03
2022-10-09T20:39:20.033Z,101091.22
2022-10-09T20:41:50.868Z,101081.50
2022-10-09T20:44:20.516Z,101084.31
2022-10-09T20:46:53.555Z,101086.31
2022-10-09T20:49:23.938Z,101086.72
2022-10-09T20:51:55.392Z,101087.94
2022-10-09T20:54:27.717Z,101089.97
2022-10-09T20:56:57.665Z,101089.56
2022-10-09T20:59:28.107Z,101086.31
2022-10-09T21:01:58.580Z,101088.72
2022-10-09T21:04:28.727Z,101089.91
2022-10-09T21:07:01.053Z,101080.56
2022-10-09T21:09:33.610Z,101085.44
2022-10-09T21:12:03.926Z,101077.72
2022-10-09T21:14:34.066Z,101081.78
2022-10-09T21:17:03.885Z,101082.97
2022-10-09T21:19:34.759Z,101078.91
2022-10-09T21:22:05.257Z,101082.13
2022-10-09T21:24:37.083Z,101078.09
2022-10-09T21:27:07.547Z,101080.50
2022-10-09T21:29:37.818Z,101078.47
2022-10-09T21:32:08.290Z,101075.22
2022-10-09T21:34:38.649Z,101074.00
2022-10-09T21:37:20.887Z,101079.25
2022-10-09T21:39:53.739Z,101085.69
2022-10-09T21:42:23.763Z,101086.13
2022-10-09T21:44:54.194Z,101079.59
2022-10-09T21:47:24.539Z,101090.53
2022-10-09T21:49:55.025Z,101088.09
2022-10-09T21:52:24.995Z,101084.84
2022-10-09T21:54:57.093Z,101075.09
2022-10-09T21:57:26.910Z,101083.19
2022-10-09T21:59:57.102Z,101075.88
2022-10-09T22:02:27.219Z,101078.34
2022-10-09T22:04:57.824Z,101082.78
2022-10-09T22:07:30.872Z,101081.53
2022-10-09T22:10:02.968Z,101081.13
2022-10-09T22:12:32.853Z,101079.53
2022-10-09T22:15:03.073Z,101091.25
2022-10-09T22:17:33.301Z,101090.81
2022-10-09T22:20:04.332Z,101086.75
2022-10-09T22:22:35.312Z,101098.06
2022-10-09T22:25:09.520Z,101082.63
2022-10-09T22:27:39.404Z,101075.72
2022-10-09T22:30:11.681Z,101086.66
2022-10-09T22:32:41.808Z,101081.78
2022-10-09T22:35:12.365Z,101077.72
2022-10-09T22:37:42.262Z,101081.75
2022-10-09T22:40:15.752Z,101074.44
2022-10-09T22:42:45.484Z,101076.06
2022-10-09T22:45:15.629Z,101076.06
2022-10-09T22:47:45.385Z,101081.72
2022-10-09T22:50:15.969Z,101078.47
2022-10-09T22:52:46.257Z,101075.63
2022-10-09T22:55:18.862Z,101076.81
2022-10-09T22:57:49.728Z,101072.75
2022-10-09T23:00:20.117Z,101071.53
2022-10-09T23:02:50.408Z,101078.00
2022-10-09T23:05:20.481Z,101066.63
2022-10-09T23:07:50.454Z,101069.81
2022-10-09T23:10:21.931Z,101069.44
2022-10-09T23:12:52.565Z,101062.50
2022-10-09T23:15:22.808Z,101073.81
2022-10-09T23:17:53.123Z,101077.44
2022-10-09T23:20:23.328Z,101072.56
2022-10-09T23:22:53.213Z,101075.38
2022-10-09T23:25:25.522Z,101077.75
2022-10-09T23:27:55.818Z,101073.28
2022-10-09T23:30:26.241Z,101074.47
2022-10-09T23:32:56.425Z,101081.34
2022-10-09T23:35:27.792Z,101072.03
2022-10-09T23:37:58.466Z,101072.41
2022-10-09T23:40:30.555Z,101082.94
2022-10-09T23:43:00.501Z,101074.84
2022-10-09T23:45:30.701Z,101073.22
2022-10-09T23:48:00.580Z,101070.75
2022-10-09T23:50:30.307Z,101072.34
2022-10-09T23:53:00.413Z,101073.56
2022-10-09T23:55:31.940Z,101079.22
2022-10-09T23:58:02.011Z,101080.44
